Time;durP1;ratioP1;P1;durP2;ratioP2;P2;SDS_P1;SDS_P2;PMS_P1;PMS_P2;Temp;Humidity;BMP_temperature;BMP_pressure;BME280_temperature;BME280_humidity;BME280_pressure;Samples;Min_cycle;Max_cycle;Signal;HPM_P1;HPM_P2
2022/05/31 00:01:13;;;;;;;5.78;2.63;;;13.70;99.90;;;;;;5011987;28;20022;-62
2022/05/31 00:03:40;;;;;;;6.70;3.17;;;13.80;99.90;;;;;;5011139;28;20030;-62
2022/05/31 00:06:06;;;;;;;6.82;2.92;;;13.80;99.90;;;;;;5011105;28;20029;-62
2022/05/31 00:08:33;;;;;;;7.25;3.20;;;13.80;99.90;;;;;;5011394;28;20026;-62
2022/05/31 00:11:00;;;;;;;6.53;3.47;;;13.80;99.90;;;;;;5011405;28;20018;-62
2022/05/31 00:13:27;;;;;;;4.70;3.03;;;13.70;99.90;;;;;;5011334;28;20414;-62
2022/05/31 00:15:53;;;;;;;6.00;3.00;;;13.70;99.90;;;;;;5010968;28;20105;-62
2022/05/31 00:18:19;;;;;;;5.13;2.95;;;13.80;99.90;;;;;;5007499;28;20033;-61
2022/05/31 00:20:44;;;;;;;4.53;2.90;;;13.80;99.90;;;;;;5003246;28;20104;-61
2022/05/31 00:23:10;;;;;;;6.45;3.28;;;13.70;99.90;;;;;;5010806;28;20053;-62
2022/05/31 00:25:36;;;;;;;6.78;3.22;;;13.80;99.90;;;;;;5010580;28;20049;-62
2022/05/31 00:28:02;;;;;;;5.10;3.10;;;13.80;99.90;;;;;;5010504;28;20117;-60
2022/05/31 00:30:28;;;;;;;7.55;3.63;;;13.90;99.90;;;;;;5010377;28;20068;-62
2022/05/31 00:32:54;;;;;;;6.85;3.13;;;13.90;99.90;;;;;;5010668;28;20455;-62
2022/05/31 00:35:43;;;;;;;4.72;2.70;;;13.90;99.90;;;;;;5011110;28;20483;-62
2022/05/31 00:38:09;;;;;;;4.65;2.70;;;13.90;99.90;;;;;;4998085;28;20068;-61
2022/05/31 00:40:37;;;;;;;7.97;3.30;;;13.90;99.90;;;;;;5010699;28;20026;-62
2022/05/31 00:43:07;;;;;;;4.78;2.70;;;13.80;99.90;;;;;;5011419;28;20042;-62
2022/05/31 00:45:57;;;;;;;8.02;3.10;;;13.70;99.90;;;;;;5011808;28;20435;-62
2022/05/31 00:48:33;;;;;;;6.05;3.25;;;13.50;99.90;;;;;;5013107;28;20580;-62
2022/05/31 00:51:10;;;;;;;7.88;3.22;;;13.50;99.90;;;;;;5014352;28;20032;-62
2022/05/31 00:53:42;;;;;;;4.45;2.80;;;13.50;99.90;;;;;;5014586;28;20030;-62
2022/05/31 00:56:14;;;;;;;5.53;3.00;;;13.60;99.90;;;;;;5014133;28;20037;-62
2022/05/31 00:58:47;;;;;;;5.30;2.80;;;13.60;99.90;;;;;;5013853;28;20406;-61
2022/05/31 01:01:16;;;;;;;7.43;2.95;;;13.50;99.90;;;;;;5014661;28;20398;-61
2022/05/31 01:03:43;;;;;;;5.65;3.10;;;13.40;99.90;;;;;;5013872;28;20042;-62
2022/05/31 01:06:10;;;;;;;7.57;3.03;;;13.30;99.90;;;;;;5013934;28;20026;-62
2022/05/31 01:08:37;;;;;;;7.00;3.05;;;13.30;99.90;;;;;;5013848;28;20136;-62
2022/05/31 01:11:04;;;;;;;5.95;3.08;;;13.30;99.90;;;;;;5014275;28;20029;-62
2022/05/31 01:13:30;;;;;;;5.47;3.00;;;13.10;99.90;;;;;;5013627;28;20140;-62
2022/05/31 01:16:09;;;;;;;5.72;3.20;;;13.10;99.90;;;;;;5014487;28;20057;-62
2022/05/31 01:18:36;;;;;;;7.38;2.97;;;13.20;99.90;;;;;;5013661;28;20021;-61
2022/05/31 01:21:02;;;;;;;8.70;3.33;;;13.20;99.90;;;;;;5013737;28;20053;-62
2022/05/31 01:23:35;;;;;;;8.25;3.65;;;13.20;99.90;;;;;;5013906;28;20076;-62
2022/05/31 01:26:06;;;;;;;5.25;3.00;;;13.30;99.90;;;;;;5013625;28;20030;-62
2022/05/31 01:29:03;;;;;;;4.75;3.70;;;13.40;99.90;;;;;;5013519;28;20500;-61
2022/05/31 01:31:32;;;;;;;5.10;3.03;;;13.40;99.90;;;;;;5010783;28;20052;-62
2022/05/31 01:34:18;;;;;;;5.50;2.90;;;13.30;99.90;;;;;;5014316;28;20029;-62
2022/05/31 01:36:49;;;;;;;8.27;3.60;;;13.50;99.90;;;;;;5013465;28;20037;-61
2022/05/31 01:39:25;;;;;;;5.88;3.25;;;13.50;99.90;;;;;;5013135;28;20030;-61
2022/05/31 01:42:03;;;;;;;6.60;3.15;;;13.30;99.90;;;;;;5012780;28;20533;-62
2022/05/31 01:44:32;;;;;;;6.40;3.10;;;13.30;99.90;;;;;;5013244;28;20041;-61
2022/05/31 01:47:00;;;;;;;5.68;3.47;;;13.30;99.90;;;;;;5013749;28;20077;-62
2022/05/31 01:49:30;;;;;;;5.43;3.30;;;13.20;99.90;;;;;;5013401;28;20022;-61
2022/05/31 01:51:58;;;;;;;6.88;3.53;;;13.20;99.90;;;;;;5013246;28;20063;-62
2022/05/31 01:54:24;;;;;;;7.53;3.65;;;13.10;99.90;;;;;;5013297;28;20482;-62
2022/05/31 01:56:55;;;;;;;7.70;3.40;;;13.20;99.90;;;;;;5011481;28;20030;-62
2022/05/31 01:59:22;;;;;;;8.32;3.28;;;13.40;99.90;;;;;;5012985;28;20501;-62
2022/05/31 02:01:48;;;;;;;6.82;3.35;;;13.40;99.90;;;;;;4997403;28;20033;-62
2022/05/31 02:04:16;;;;;;;6.95;3.08;;;13.60;99.90;;;;;;5013450;28;20037;-61
2022/05/31 02:06:42;;;;;;;8.15;3.22;;;13.60;99.90;;;;;;5012899;28;20022;-61
2022/05/31 02:09:11;;;;;;;6.78;3.50;;;13.50;99.90;;;;;;5012880;28;20063;-61
2022/05/31 02:11:38;;;;;;;7.70;3.10;;;13.40;99.90;;;;;;5012412;28;20057;-61
2022/05/31 02:14:05;;;;;;;7.05;3.42;;;13.40;99.90;;;;;;5012655;28;20026;-61
2022/05/31 02:16:31;;;;;;;5.72;3.33;;;13.40;99.90;;;;;;5012744;28;20375;-62
2022/05/31 02:19:18;;;;;;;7.80;3.40;;;13.30;99.90;;;;;;5013592;28;20131;-61
2022/05/31 02:21:44;;;;;;;7.75;3.20;;;13.30;99.90;;;;;;5012514;28;20029;-62
2022/05/31 02:24:15;;;;;;;7.82;3.30;;;13.30;99.90;;;;;;5012253;28;20049;-61
2022/05/31 02:26:43;;;;;;;6.45;3.42;;;13.30;99.90;;;;;;5012031;28;20084;-62
2022/05/31 02:29:11;;;;;;;5.80;3.33;;;13.30;99.90;;;;;;5012484;28;20030;-62
2022/05/31 02:31:37;;;;;;;8.10;3.25;;;13.40;99.90;;;;;;5012128;28;20533;-62
2022/05/31 02:34:04;;;;;;;8.55;3.47;;;13.40;99.90;;;;;;5012145;28;20040;-62
2022/05/31 02:36:30;;;;;;;5.90;2.88;;;13.40;99.90;;;;;;5012208;28;20022;-62
2022/05/31 02:38:55;;;;;;;6.82;3.22;;;13.40;99.90;;;;;;5012258;28;20034;-62
2022/05/31 02:41:22;;;;;;;8.13;2.90;;;13.50;99.90;;;;;;5011759;28;20434;-62
2022/05/31 02:43:48;;;;;;;6.60;3.03;;;13.50;99.90;;;;;;5012407;28;20045;-62
2022/05/31 02:46:14;;;;;;;6.75;3.10;;;13.50;99.90;;;;;;5012875;28;20033;-62
2022/05/31 02:48:40;;;;;;;6.05;3.05;;;13.40;99.90;;;;;;5012561;28;20030;-62
2022/05/31 02:51:06;;;;;;;8.40;3.67;;;13.40;99.90;;;;;;5011848;28;20026;-62
2022/05/31 02:53:32;;;;;;;7.10;3.63;;;13.30;99.90;;;;;;5012087;28;20030;-61
2022/05/31 02:55:58;;;;;;;9.13;3.92;;;13.40;99.90;;;;;;5011797;28;20108;-62
2022/05/31 02:58:25;;;;;;;9.48;5.00;;;13.30;99.90;;;;;;5012310;28;20026;-62
2022/05/31 03:00:51;;;;;;;10.10;4.85;;;13.40;99.90;;;;;;5012697;28;20026;-62
2022/05/31 03:03:17;;;;;;;8.68;4.60;;;13.30;99.90;;;;;;5011734;28;20042;-61
2022/05/31 03:05:43;;;;;;;8.13;4.55;;;13.30;99.90;;;;;;5011719;28;20030;-61
2022/05/31 03:08:09;;;;;;;8.13;4.57;;;13.20;99.90;;;;;;5011267;28;20072;-62
2022/05/31 03:10:39;;;;;;;10.50;5.07;;;13.20;99.90;;;;;;5011791;28;20101;-62
2022/05/31 03:13:05;;;;;;;8.73;4.30;;;13.20;99.90;;;;;;5012963;28;20022;-62
2022/05/31 03:15:34;;;;;;;7.50;4.45;;;13.30;99.90;;;;;;5011513;28;20030;-61
2022/05/31 03:18:07;;;;;;;7.53;4.90;;;13.20;99.90;;;;;;5011581;28;20017;-61
2022/05/31 03:20:51;;;;;;;8.47;5.00;;;13.20;99.90;;;;;;5011601;28;20037;-62
2022/05/31 03:23:26;;;;;;;7.43;4.63;;;13.10;99.90;;;;;;5011334;28;20065;-62
2022/05/31 03:25:54;;;;;;;9.57;5.38;;;13.20;99.90;;;;;;4996893;28;20010;-61
2022/05/31 03:28:22;;;;;;;11.38;5.28;;;13.20;99.90;;;;;;5012734;28;20053;-62
2022/05/31 03:30:48;;;;;;;12.05;5.07;;;13.20;99.90;;;;;;5011526;28;20034;-61
2022/05/31 03:33:14;;;;;;;10.07;4.78;;;13.20;99.90;;;;;;5011590;28;20029;-62
2022/05/31 03:35:41;;;;;;;12.82;5.07;;;13.20;99.90;;;;;;5010104;28;20387;-62
2022/05/31 03:38:07;;;;;;;13.93;5.35;;;13.30;99.90;;;;;;5011024;28;20034;-61
2022/05/31 03:43:18;;;;;;;14.32;5.57;;;13.20;99.90;;;;;;5012551;28;20120;-62
2022/05/31 03:45:44;;;;;;;12.52;5.35;;;13.20;99.90;;;;;;5011546;28;20465;-62
2022/05/31 03:48:11;;;;;;;15.25;5.45;;;13.20;99.90;;;;;;5011315;28;20119;-62
2022/05/31 03:50:38;;;;;;;12.75;5.05;;;13.20;99.90;;;;;;5011067;28;20037;-62
2022/05/31 03:53:05;;;;;;;10.23;4.70;;;13.30;99.90;;;;;;5011119;28;20037;-62
2022/05/31 03:55:31;;;;;;;10.63;5.03;;;13.30;99.90;;;;;;5011799;28;20034;-61
2022/05/31 03:57:57;;;;;;;9.85;4.70;;;13.30;99.90;;;;;;5011861;28;20088;-61
2022/05/31 04:00:23;;;;;;;9.48;4.50;;;13.30;99.90;;;;;;5011183;28;20033;-61
2022/05/31 04:02:49;;;;;;;12.80;4.55;;;13.50;99.90;;;;;;5011381;28;20605;-61
2022/05/31 04:05:15;;;;;;;7.78;4.40;;;13.40;99.90;;;;;;5011258;28;20475;-61
2022/05/31 04:07:40;;;;;;;6.88;4.28;;;13.30;99.90;;;;;;5011208;28;20034;-61
2022/05/31 04:10:08;;;;;;;7.60;4.10;;;13.40;99.90;;;;;;5011754;28;20030;-61
2022/05/31 04:12:35;;;;;;;7.65;4.38;;;13.40;99.90;;;;;;5011226;28;20026;-62
2022/05/31 04:15:01;;;;;;;8.98;4.20;;;13.40;99.90;;;;;;5011095;28;20065;-62
2022/05/31 04:17:27;;;;;;;7.13;4.65;;;13.30;99.90;;;;;;5011303;28;20065;-61
2022/05/31 04:19:52;;;;;;;9.85;4.40;;;13.30;99.90;;;;;;5010895;28;20406;-61
2022/05/31 04:22:18;;;;;;;8.70;5.15;;;13.30;99.90;;;;;;5015257;28;20018;-61
2022/05/31 04:24:44;;;;;;;7.38;5.10;;;13.30;99.90;;;;;;5015100;28;20498;-61
2022/05/31 04:27:16;;;;;;;7.70;4.55;;;13.50;99.90;;;;;;5014739;28;20060;-62
2022/05/31 04:29:42;;;;;;;8.27;4.70;;;13.40;99.90;;;;;;5015010;28;20029;-61
2022/05/31 04:32:08;;;;;;;10.80;4.78;;;13.60;99.90;;;;;;5014235;28;20048;-60
2022/05/31 04:34:34;;;;;;;9.50;5.10;;;13.50;99.90;;;;;;5014714;28;20112;-61
2022/05/31 04:37:00;;;;;;;8.55;4.95;;;13.40;99.90;;;;;;5012961;28;20054;-62
2022/05/31 04:39:26;;;;;;;8.13;4.72;;;13.40;99.90;;;;;;5014569;28;20038;-61
2022/05/31 04:41:51;;;;;;;7.10;4.80;;;13.30;99.90;;;;;;5014122;28;20025;-62
2022/05/31 04:44:18;;;;;;;8.00;4.50;;;13.40;99.90;;;;;;5013788;28;20064;-60
2022/05/31 04:46:44;;;;;;;8.73;5.28;;;13.40;99.90;;;;;;5006707;28;20040;-61
2022/05/31 04:49:10;;;;;;;10.45;6.50;;;13.40;99.90;;;;;;5008950;28;20026;-62
2022/05/31 04:51:36;;;;;;;11.02;5.70;;;13.40;99.90;;;;;;5009670;28;20088;-61
2022/05/31 04:54:03;;;;;;;12.07;6.10;;;13.50;99.90;;;;;;5011073;28;20026;-61
2022/05/31 04:56:30;;;;;;;9.55;5.22;;;13.80;99.90;;;;;;5008309;28;20022;-61
2022/05/31 04:58:56;;;;;;;10.48;5.80;;;13.80;99.90;;;;;;5008681;28;20057;-61
2022/05/31 05:01:23;;;;;;;11.02;6.30;;;13.90;99.90;;;;;;5007198;28;20483;-62
2022/05/31 05:03:49;;;;;;;13.27;6.10;;;13.70;99.90;;;;;;5011075;28;20462;-61
2022/05/31 05:06:17;;;;;;;14.45;6.25;;;13.90;99.90;;;;;;5013754;28;20036;-63
2022/05/31 05:08:44;;;;;;;12.27;7.82;;;14.00;99.90;;;;;;5013370;28;20573;-62
2022/05/31 05:11:13;;;;;;;13.57;8.00;;;14.00;99.90;;;;;;5014064;28;20018;-62
2022/05/31 05:13:40;;;;;;;13.15;8.77;;;13.90;99.90;;;;;;5013961;28;20065;-61
2022/05/31 05:16:08;;;;;;;16.17;9.35;;;14.10;99.90;;;;;;5014377;28;20050;-62
2022/05/31 05:18:34;;;;;;;15.65;9.32;;;14.10;99.90;;;;;;5013292;28;20040;-62
2022/05/31 05:21:07;;;;;;;14.73;9.77;;;14.00;99.90;;;;;;5014324;28;20026;-61
2022/05/31 05:23:33;;;;;;;15.03;10.10;;;14.10;99.90;;;;;;5013714;28;20117;-61
2022/05/31 05:25:59;;;;;;;17.38;9.30;;;14.10;99.90;;;;;;5013750;28;20443;-61
2022/05/31 05:31:24;;;;;;;17.42;10.45;;;14.30;99.90;;;;;;5013175;28;20126;-62
2022/05/31 05:33:50;;;;;;;17.80;9.80;;;14.40;99.90;;;;;;5013390;28;20065;-62
2022/05/31 05:36:17;;;;;;;16.52;9.40;;;14.30;99.90;;;;;;5013773;28;20026;-62
2022/05/31 05:38:42;;;;;;;17.40;9.35;;;14.40;99.90;;;;;;5013355;28;20502;-61
2022/05/31 05:41:09;;;;;;;15.48;9.60;;;14.50;99.90;;;;;;5013317;28;20128;-62
2022/05/31 05:43:34;;;;;;;14.15;9.10;;;14.50;99.90;;;;;;5013359;28;20502;-62
2022/05/31 05:46:00;;;;;;;16.25;9.15;;;14.60;99.90;;;;;;5014274;28;20034;-62
2022/05/31 05:48:26;;;;;;;17.38;9.20;;;14.60;99.90;;;;;;5012468;28;20601;-62
2022/05/31 05:50:51;;;;;;;17.00;8.57;;;14.80;99.90;;;;;;5013328;28;20025;-62
2022/05/31 05:53:17;;;;;;;15.95;8.77;;;14.90;99.90;;;;;;5013036;28;20575;-62
2022/05/31 05:55:43;;;;;;;13.82;8.93;;;14.90;99.90;;;;;;5013155;28;20022;-62
2022/05/31 05:58:09;;;;;;;14.50;8.27;;;15.00;99.90;;;;;;5013812;28;20029;-61
2022/05/31 06:00:47;;;;;;;14.90;8.45;;;15.00;99.90;;;;;;5012882;28;20435;-62
2022/05/31 06:03:19;;;;;;;16.58;9.02;;;15.00;99.90;;;;;;5012859;28;20466;-62
2022/05/31 06:05:47;;;;;;;15.90;9.68;;;15.10;99.90;;;;;;5012743;28;20080;-62
2022/05/31 06:08:36;;;;;;;14.77;9.25;;;15.20;99.90;;;;;;5013381;28;20374;-62
2022/05/31 06:11:10;;;;;;;14.57;9.98;;;15.20;99.90;;;;;;4999641;28;20025;-62
2022/05/31 06:13:41;;;;;;;14.02;9.52;;;15.20;99.90;;;;;;5012754;28;20040;-62
2022/05/31 06:16:08;;;;;;;14.63;10.13;;;15.40;99.90;;;;;;5012131;28;20060;-62
2022/05/31 06:18:44;;;;;;;14.57;9.75;;;15.30;99.90;;;;;;5012192;28;20033;-62
2022/05/31 06:21:12;;;;;;;12.18;9.50;;;15.30;99.90;;;;;;5012740;28;20486;-62
2022/05/31 06:23:38;;;;;;;16.65;9.70;;;15.30;99.90;;;;;;5012967;28;20053;-62
2022/05/31 06:26:05;;;;;;;14.25;9.80;;;15.30;99.90;;;;;;5012502;28;20072;-62
2022/05/31 06:28:30;;;;;;;14.50;9.43;;;15.40;99.90;;;;;;5012444;28;20021;-62
2022/05/31 06:30:56;;;;;;;14.40;8.68;;;15.50;99.90;;;;;;5012801;28;20482;-62
2022/05/31 06:33:22;;;;;;;14.48;8.43;;;15.60;99.90;;;;;;5012413;28;20037;-62
2022/05/31 06:35:47;;;;;;;13.07;8.15;;;15.70;99.90;;;;;;5012386;28;20399;-62
2022/05/31 06:38:16;;;;;;;16.27;8.55;;;15.90;99.90;;;;;;5012471;28;20102;-62
2022/05/31 06:40:42;;;;;;;11.80;7.55;;;16.00;99.90;;;;;;5012716;28;20030;-62
2022/05/31 06:43:08;;;;;;;11.38;8.07;;;16.30;99.90;;;;;;5012310;28;20030;-62
2022/05/31 06:45:34;;;;;;;13.68;7.40;;;16.30;99.90;;;;;;5011780;28;20360;-62
2022/05/31 06:48:00;;;;;;;11.70;7.78;;;16.60;99.90;;;;;;5012203;28;20038;-62
2022/05/31 06:50:26;;;;;;;11.10;7.53;;;16.90;99.90;;;;;;5012438;28;20030;-62
2022/05/31 06:58:20;;;;;;;8.70;5.80;;;17.20;99.90;;;;;;5009172;28;20028;-62
2022/05/31 07:00:46;;;;;;;13.38;5.70;;;17.60;99.90;;;;;;5011659;28;20030;-63
2022/05/31 07:03:12;;;;;;;9.35;5.05;;;17.90;99.90;;;;;;5011925;28;20048;-62
2022/05/31 07:05:40;;;;;;;9.18;4.70;;;18.20;99.90;;;;;;5012178;28;20038;-62
2022/05/31 07:08:06;;;;;;;8.68;5.20;;;18.40;99.90;;;;;;5011872;28;20036;-62
2022/05/31 07:10:32;;;;;;;6.57;4.60;;;18.70;99.90;;;;;;5011896;28;20469;-62
2022/05/31 07:12:58;;;;;;;8.07;4.38;;;18.70;99.90;;;;;;5012277;28;20037;-62
2022/05/31 07:15:25;;;;;;;7.18;3.50;;;18.70;99.90;;;;;;5011785;28;20042;-62
2022/05/31 07:17:51;;;;;;;10.02;3.70;;;18.50;99.90;;;;;;5011684;28;20503;-63
2022/05/31 07:20:17;;;;;;;6.93;3.60;;;18.30;99.90;;;;;;5011808;28;20109;-62
2022/05/31 07:22:43;;;;;;;6.90;4.30;;;18.30;99.90;;;;;;5011640;28;20026;-62
2022/05/31 07:25:09;;;;;;;5.60;3.58;;;18.40;99.90;;;;;;5012198;28;20493;-62
2022/05/31 07:27:36;;;;;;;6.32;3.38;;;18.40;99.90;;;;;;5011510;28;20037;-62
2022/05/31 07:30:03;;;;;;;6.78;3.30;;;18.40;99.90;;;;;;5010944;28;20049;-62
2022/05/31 07:32:29;;;;;;;7.75;4.10;;;18.60;99.90;;;;;;5011633;28;20034;-63
2022/05/31 07:34:55;;;;;;;6.22;2.92;;;18.60;99.90;;;;;;5011646;28;20033;-63
2022/05/31 07:37:21;;;;;;;6.32;2.67;;;18.70;99.90;;;;;;5011783;28;20079;-62
2022/05/31 07:39:48;;;;;;;4.65;2.67;;;18.80;99.90;;;;;;5011811;28;20097;-62
2022/05/31 07:42:14;;;;;;;4.22;3.20;;;18.80;99.90;;;;;;5011567;28;20032;-63
2022/05/31 07:44:40;;;;;;;4.40;2.33;;;19.00;99.90;;;;;;5010817;28;20125;-62
2022/05/31 07:47:06;;;;;;;4.88;2.17;;;19.20;99.90;;;;;;5011556;28;20445;-62
2022/05/31 07:49:32;;;;;;;5.90;2.33;;;19.30;99.90;;;;;;5011415;28;20029;-63
2022/05/31 07:51:58;;;;;;;5.68;2.40;;;19.50;99.90;;;;;;5011913;28;20386;-62
2022/05/31 07:54:24;;;;;;;5.53;2.53;;;19.60;99.90;;;;;;5012128;28;20517;-62
2022/05/31 07:56:49;;;;;;;5.15;3.00;;;19.40;99.90;;;;;;5015348;28;20441;-62
2022/05/31 07:59:16;;;;;;;4.45;2.13;;;19.40;99.90;;;;;;5015075;28;20025;-63
2022/05/31 08:01:42;;;;;;;4.30;1.83;;;19.40;99.90;;;;;;5015351;28;20026;-63
2022/05/31 08:04:08;;;;;;;3.88;2.10;;;19.30;99.90;;;;;;5015805;28;20069;-62
2022/05/31 08:06:35;;;;;;;4.00;1.98;;;19.40;99.90;;;;;;5015157;28;20030;-63
2022/05/31 08:09:02;;;;;;;7.68;3.05;;;19.50;99.90;;;;;;5015543;28;20033;-62
2022/05/31 08:11:30;;;;;;;3.80;2.38;;;19.70;99.90;;;;;;5014965;28;20089;-62
2022/05/31 08:13:56;;;;;;;3.47;2.30;;;19.50;99.90;;;;;;5014673;28;20030;-62
2022/05/31 08:16:25;;;;;;;5.32;3.35;;;19.50;99.90;;;;;;5015701;28;20101;-63
2022/05/31 08:18:52;;;;;;;4.20;2.70;;;19.60;99.90;;;;;;5015085;28;20443;-62
2022/05/31 08:21:21;;;;;;;5.45;2.00;;;19.80;99.90;;;;;;5014709;28;20034;-62
2022/05/31 08:23:47;;;;;;;5.53;2.88;;;19.90;99.90;;;;;;5014911;28;20111;-63
2022/05/31 08:26:13;;;;;;;4.38;2.15;;;19.90;99.90;;;;;;5014790;28;20022;-62
2022/05/31 08:28:39;;;;;;;5.70;2.03;;;20.20;99.90;;;;;;5014301;28;20497;-62
2022/05/31 08:31:11;;;;;;;5.20;2.47;;;20.50;99.90;;;;;;5015508;28;20061;-62
2022/05/31 08:33:38;;;;;;;3.58;2.17;;;20.40;99.90;;;;;;5014680;28;20550;-62
2022/05/31 08:36:04;;;;;;;3.35;2.10;;;21.10;99.90;;;;;;5014644;28;20045;-62
2022/05/31 08:38:31;;;;;;;3.88;1.77;;;21.80;99.90;;;;;;5014510;28;20034;-63
2022/05/31 08:41:18;;;;;;;5.60;1.83;;;22.40;99.90;;;;;;5014354;28;20029;-63
2022/05/31 08:43:46;;;;;;;3.97;2.20;;;22.70;99.90;;;;;;5014617;28;20536;-63
2022/05/31 08:46:32;;;;;;;3.58;2.00;;;23.40;99.90;;;;;;5015150;28;20530;-63
2022/05/31 08:49:00;;;;;;;5.55;2.17;;;23.10;99.90;;;;;;5014621;28;20088;-62
2022/05/31 08:51:55;;;;;;;4.15;2.00;;;23.70;99.90;;;;;;5014295;28;20062;-63
2022/05/31 08:57:37;;;;;;;3.53;2.33;;;23.30;99.90;;;;;;5014470;28;20032;-62
2022/05/31 09:00:07;;;;;;;2.92;1.90;;;24.40;99.50;;;;;;5014006;28;20021;-62
2022/05/31 09:02:40;;;;;;;3.83;1.90;;;27.20;97.20;;;;;;5014107;28;20056;-63
2022/05/31 09:05:14;;;;;;;3.55;2.40;;;28.70;92.20;;;;;;5014204;28;20044;-62
2022/05/31 09:07:54;;;;;;;5.88;1.98;;;31.40;87.80;;;;;;5013429;28;20018;-63
2022/05/31 09:10:38;;;;;;;4.18;1.67;;;33.90;81.10;;;;;;5010921;28;20041;-62
2022/05/31 09:13:22;;;;;;;4.10;2.00;;;34.80;76.30;;;;;;5012946;28;20044;-63
2022/05/31 09:15:59;;;;;;;4.40;1.30;;;35.00;71.00;;;;;;5014660;28;20447;-63
2022/05/31 09:18:50;;;;;;;3.67;1.70;;;33.90;71.00;;;;;;5014149;28;20454;-63
2022/05/31 09:21:27;;;;;;;3.72;1.38;;;34.20;70.60;;;;;;5013609;28;20021;-62
2022/05/31 09:23:55;;;;;;;1.77;1.35;;;34.50;69.90;;;;;;5013582;28;20511;-63
2022/05/31 09:26:26;;;;;;;3.35;1.60;;;35.30;69.20;;;;;;5013369;28;20513;-63
2022/05/31 09:29:14;;;;;;;3.42;1.65;;;34.90;68.70;;;;;;4998546;28;20115;-63
2022/05/31 09:31:48;;;;;;;3.90;1.52;;;34.80;68.60;;;;;;5013378;28;20058;-63
2022/05/31 09:34:17;;;;;;;2.53;1.40;;;32.90;71.20;;;;;;5014321;28;20400;-63
2022/05/31 09:36:55;;;;;;;2.17;1.35;;;34.70;67.20;;;;;;5013377;28;20057;-63
2022/05/31 09:39:54;;;;;;;2.25;1.50;;;34.40;68.20;;;;;;5013706;28;20486;-63
2022/05/31 09:42:25;;;;;;;4.63;1.80;;;33.50;69.90;;;;;;5013294;28;20054;-63
2022/05/31 09:45:05;;;;;;;1.85;1.48;;;32.60;72.20;;;;;;5013175;28;20033;-64
2022/05/31 09:47:31;;;;;;;3.92;1.40;;;33.20;71.40;;;;;;5013223;28;20425;-64
2022/05/31 09:49:57;;;;;;;1.55;1.40;;;31.10;74.50;;;;;;5012128;28;20072;-64
2022/05/31 09:52:35;;;;;;;3.25;1.40;;;30.00;75.00;;;;;;5013668;28;20033;-63
2022/05/31 09:58:19;;;;;;;5.53;1.35;;;29.50;74.80;;;;;;5013749;28;20106;-64
2022/05/31 10:01:25;;;;;;;2.35;1.63;;;29.50;74.90;;;;;;5011388;28;20072;-63
2022/05/31 10:04:07;;;;;;;4.25;1.70;;;30.20;73.80;;;;;;5011074;28;20049;-63
2022/05/31 10:06:33;;;;;;;2.53;1.50;;;29.20;75.80;;;;;;5012575;28;20068;-64
2022/05/31 10:09:15;;;;;;;2.65;1.17;;;28.30;76.40;;;;;;5012739;28;20022;-64
2022/05/31 10:11:45;;;;;;;2.08;1.20;;;28.60;75.70;;;;;;5012699;28;20064;-64
2022/05/31 10:14:26;;;;;;;5.13;1.50;;;28.50;74.30;;;;;;5012876;28;20117;-64
2022/05/31 10:16:54;;;;;;;3.10;1.50;;;28.90;75.00;;;;;;4997457;28;20114;-64
2022/05/31 10:19:26;;;;;;;2.00;1.65;;;28.70;74.90;;;;;;5012780;28;20113;-63
2022/05/31 10:21:52;;;;;;;1.77;1.40;;;28.80;75.40;;;;;;5012860;28;20041;-63
2022/05/31 10:24:24;;;;;;;2.75;1.17;;;28.70;75.20;;;;;;5012129;28;20045;-63
2022/05/31 10:27:10;;;;;;;2.63;1.30;;;29.40;73.40;;;;;;5012593;28;20112;-64
2022/05/31 10:29:46;;;;;;;4.82;1.48;;;28.80;74.70;;;;;;5012468;28;20454;-63
2022/05/31 10:32:29;;;;;;;2.60;1.15;;;28.70;75.80;;;;;;5012728;28;20597;-63
2022/05/31 10:35:24;;;;;;;3.83;1.17;;;28.30;73.90;;;;;;4997750;28;20706;-63
2022/05/31 10:37:57;;;;;;;2.85;1.40;;;27.60;77.70;;;;;;4983989;28;20042;-64
2022/05/31 10:40:54;;;;;;;2.00;1.20;;;27.90;76.60;;;;;;5068439;28;20440;-62
2022/05/31 10:43:25;;;;;;;3.00;1.20;;;28.20;76.40;;;;;;5045379;28;20440;-63
2022/05/31 10:45:53;;;;;;;3.25;1.17;;;27.90;75.10;;;;;;5048735;28;20112;-62
2022/05/31 10:48:19;;;;;;;2.67;1.38;;;27.60;75.90;;;;;;5048782;28;20024;-65
2022/05/31 10:50:54;;;;;;;2.58;1.15;;;28.40;75.00;;;;;;5048654;28;20025;-62
2022/05/31 10:53:41;;;;;;;2.10;1.42;;;27.40;77.30;;;;;;5048112;28;20021;-62
2022/05/31 10:56:31;;;;;;;2.20;1.30;;;27.40;75.80;;;;;;5034986;28;20040;-63
2022/05/31 10:59:05;;;;;;;2.47;1.30;;;27.80;77.10;;;;;;5033785;28;20032;-63
2022/05/31 11:01:55;;;;;;;3.33;1.30;;;27.60;77.10;;;;;;5048683;28;20037;-63
2022/05/31 11:04:41;;;;;;;2.45;1.20;;;28.10;75.70;;;;;;5044952;28;20702;-63
2022/05/31 11:07:27;;;;;;;2.53;1.10;;;28.00;76.20;;;;;;5047173;28;20505;-63
2022/05/31 11:13:40;;;;;;;1.85;1.10;;;27.50;75.10;;;;;;5049134;28;20064;-63
2022/05/31 11:16:22;;;;;;;3.03;1.20;;;27.30;76.00;;;;;;5047215;28;20026;-63
2022/05/31 11:18:54;;;;;;;1.90;1.17;;;27.40;77.20;;;;;;5048060;28;20040;-63
2022/05/31 11:22:06;;;;;;;1.90;1.10;;;27.00;75.90;;;;;;5047394;28;20059;-63
2022/05/31 11:24:50;;;;;;;2.88;1.30;;;27.20;77.50;;;;;;5032892;28;20046;-63
2022/05/31 11:27:24;;;;;;;;;;;27.10;73.60;;;;;;5032225;28;20026;-63
2022/05/31 11:30:07;;;;;;;2.45;1.23;;;25.60;76.80;;;;;;5031632;28;20393;-63
2022/05/31 11:33:04;;;;;;;3.50;1.40;;;26.90;76.20;;;;;;5031747;28;20469;-63
2022/05/31 11:36:08;;;;;;;2.75;1.13;;;26.90;76.70;;;;;;5031901;28;20037;-63
2022/05/31 11:38:42;;;;;;;2.03;1.20;;;27.00;77.00;;;;;;5031192;28;20528;-63
2022/05/31 11:41:47;;;;;;;1.70;1.17;;;27.00;77.20;;;;;;5029464;28;20046;-63
2022/05/31 11:44:43;;;;;;;3.42;1.35;;;27.70;76.00;;;;;;4968137;28;20057;-63
2022/05/31 11:47:28;;;;;;;2.80;1.30;;;27.70;76.30;;;;;;4955483;28;20027;-63
2022/05/31 11:49:59;;;;;;;1.83;1.15;;;27.20;77.30;;;;;;4950849;28;20035;-63
2022/05/31 11:52:49;;;;;;;2.17;1.20;;;27.00;76.30;;;;;;4954117;28;20023;-63
2022/05/31 11:55:31;;;;;;;2.00;1.25;;;27.20;75.10;;;;;;4954024;29;20039;-63
2022/05/31 11:58:15;;;;;;;1.95;1.20;;;26.50;71.90;;;;;;4953675;29;20559;-63
2022/05/31 12:01:01;;;;;;;3.25;1.27;;;25.70;76.90;;;;;;4954802;28;20098;-63
2022/05/31 12:03:34;;;;;;;1.58;1.10;;;27.10;71.80;;;;;;4953576;29;20035;-63
2022/05/31 12:06:06;;;;;;;1.77;1.10;;;27.30;71.80;;;;;;4953237;28;20496;-63
2022/05/31 12:08:48;;;;;;;1.33;1.00;;;27.10;75.00;;;;;;4953439;29;20035;-63
2022/05/31 12:11:31;;;;;;;1.95;1.10;;;26.80;68.90;;;;;;4953827;29;20070;-63
2022/05/31 12:13:58;;;;;;;1.50;1.00;;;26.90;73.50;;;;;;4939345;28;20046;-63
2022/05/31 12:16:24;;;;;;;1.23;0.95;;;27.00;70.60;;;;;;4953780;29;20039;-63
2022/05/31 12:19:02;;;;;;;2.63;1.20;;;27.00;68.50;;;;;;4953602;28;20070;-63
2022/05/31 12:21:40;;;;;;;2.00;1.08;;;27.10;69.80;;;;;;4997851;28;20041;-63
2022/05/31 12:24:15;;;;;;;1.85;0.90;;;26.90;74.50;;;;;;5033316;28;20112;-63
2022/05/31 12:26:56;;;;;;;1.17;0.90;;;25.10;64.20;;;;;;5033304;28;20025;-63
2022/05/31 12:30:03;;;;;;;3.08;1.00;;;26.00;70.10;;;;;;5033331;28;20043;-64
2022/05/31 12:32:39;;;;;;;1.58;1.00;;;26.50;72.00;;;;;;5023175;28;20029;-63
2022/05/31 12:35:09;;;;;;;2.05;1.10;;;26.70;66.50;;;;;;5033213;28;20043;-63
2022/05/31 12:37:50;;;;;;;2.25;1.00;;;26.70;67.80;;;;;;5033247;28;20026;-63
2022/05/31 12:40:37;;;;;;;2.17;1.00;;;26.60;71.70;;;;;;5033462;28;20049;-63
2022/05/31 12:43:12;;;;;;;2.78;0.98;;;26.50;68.30;;;;;;5032373;28;20030;-63
2022/05/31 12:45:41;;;;;;;1.90;0.90;;;26.60;68.20;;;;;;5032982;28;20459;-63
2022/05/31 12:48:17;;;;;;;1.90;1.10;;;26.10;69.00;;;;;;5032581;28;20033;-63
2022/05/31 12:50:55;;;;;;;2.35;0.93;;;25.90;67.80;;;;;;5033197;28;20030;-63
2022/05/31 12:53:37;;;;;;;3.30;1.30;;;26.10;72.70;;;;;;5032868;28;20071;-63
2022/05/31 12:56:07;;;;;;;1.73;1.00;;;25.80;75.60;;;;;;5018943;28;20025;-63
2022/05/31 12:58:48;;;;;;;3.58;1.17;;;25.90;72.80;;;;;;5032857;28;20021;-63
2022/05/31 13:01:13;;;;;;;1.98;1.05;;;25.10;73.50;;;;;;5032672;28;20061;-62
2022/05/31 13:03:42;;;;;;;1.95;1.10;;;25.40;76.30;;;;;;5031563;28;20057;-63
2022/05/31 13:06:34;;;;;;;1.52;1.10;;;25.80;75.90;;;;;;5032895;28;20116;-63
2022/05/31 13:09:04;;;;;;;1.95;1.25;;;25.60;75.00;;;;;;5032899;28;20029;-63
2022/05/31 13:20:19;;;;;;;1.75;1.13;;;25.10;77.10;;;;;;5017721;28;20040;-63
2022/05/31 13:22:49;;;;;;;2.03;1.30;;;25.60;77.40;;;;;;5032526;28;20030;-63
2022/05/31 13:25:27;;;;;;;2.97;1.33;;;25.70;77.30;;;;;;5032947;28;20040;-63
2022/05/31 13:27:56;;;;;;;3.28;1.48;;;26.00;76.50;;;;;;5031687;28;20025;-63
2022/05/31 13:30:26;;;;;;;5.22;1.58;;;26.00;76.90;;;;;;5032032;28;20041;-63
2022/05/31 13:32:52;;;;;;;2.25;1.15;;;26.00;76.20;;;;;;5031713;28;20037;-63
2022/05/31 13:35:24;;;;;;;3.05;1.20;;;25.60;75.30;;;;;;5031325;28;20029;-63
2022/05/31 13:38:06;;;;;;;2.75;1.20;;;25.50;73.40;;;;;;5016524;28;20459;-63